createdAt,value
2022-08-22T00:01:44.996Z,20.90
2022-08-22T00:02:54.873Z,20.40
2022-08-22T00:03:04.187Z,21.70
2022-08-22T00:04:25.608Z,20.90
2022-08-22T00:07:18.519Z,20.90
2022-08-22T00:10:03.055Z,20.90
2022-08-22T00:13:01.821Z,20.90
2022-08-22T00:15:42.998Z,20.90
2022-08-22T00:18:32.066Z,20.90
2022-08-22T00:21:27.254Z,20.90
2022-08-22T00:24:02.835Z,20.90
2022-08-22T00:26:44.735Z,20.90
2022-08-22T00:29:33.368Z,20.80
2022-08-22T00:32:11.852Z,20.80
2022-08-22T00:34:58.400Z,20.80
2022-08-22T00:37:34.817Z,20.80
2022-08-22T00:40:08.839Z,20.70
2022-08-22T00:43:12.841Z,20.70
2022-08-22T00:45:48.388Z,20.70
2022-08-22T00:48:44.123Z,20.70
2022-08-22T00:51:40.558Z,20.70
2022-08-22T00:54:31.745Z,20.60
2022-08-22T00:57:30.743Z,20.50
2022-08-22T01:00:13.908Z,20.50
2022-08-22T01:03:16.604Z,20.40
2022-08-22T01:06:01.351Z,20.30
2022-08-22T01:08:36.981Z,20.20
2022-08-22T01:11:18.758Z,20.20
2022-08-22T01:14:13.883Z,20.10
2022-08-22T01:17:00.446Z,20.00
2022-08-22T01:20:05.174Z,20.00
2022-08-22T01:22:56.521Z,19.80
2022-08-22T01:25:46.662Z,19.80
2022-08-22T01:28:35.505Z,19.70
2022-08-22T01:31:22.546Z,19.60
2022-08-22T01:34:23.438Z,19.70
2022-08-22T01:37:27.917Z,19.50
2022-08-22T01:40:22.005Z,19.50
2022-08-22T01:42:53.501Z,19.40
2022-08-22T01:45:38.467Z,19.30
2022-08-22T01:48:05.170Z,19.20
2022-08-22T01:50:53.663Z,19.10
2022-08-22T01:53:29.743Z,19.00
2022-08-22T01:56:16.635Z,19.00
2022-08-22T01:59:11.059Z,19.00
2022-08-22T02:01:50.003Z,19.00
2022-08-22T02:04:52.058Z,18.90
2022-08-22T02:07:46.158Z,18.80
2022-08-22T02:10:44.898Z,18.80
2022-08-22T02:13:14.274Z,18.70
2022-08-22T02:15:50.355Z,18.60
2022-08-22T02:18:29.466Z,18.60
2022-08-22T02:21:05.231Z,18.50
2022-08-22T02:24:16.149Z,18.40
2022-08-22T02:27:05.022Z,18.30
2022-08-22T02:29:43.801Z,18.30
2022-08-22T02:32:26.994Z,18.30
2022-08-22T02:34:57.567Z,18.20
2022-08-22T02:37:35.586Z,18.30
2022-08-22T02:40:06.132Z,18.20
2022-08-22T02:42:59.202Z,18.30
2022-08-22T02:45:35.585Z,18.30
2022-08-22T02:48:37.547Z,18.20
2022-08-22T02:51:36.692Z,18.20
2022-08-22T02:54:16.827Z,18.20
2022-08-22T02:56:52.568Z,18.10
2022-08-22T02:59:39.424Z,18.00
2022-08-22T03:02:29.668Z,17.90
2022-08-22T03:05:23.189Z,17.90
2022-08-22T03:08:01.802Z,17.80
2022-08-22T03:10:39.393Z,17.70
2022-08-22T03:13:44.611Z,17.70
2022-08-22T03:16:26.072Z,17.60
2022-08-22T03:19:04.342Z,17.60
2022-08-22T03:21:43.083Z,17.50
2022-08-22T03:24:38.842Z,17.40
2022-08-22T03:27:23.238Z,17.40
2022-08-22T03:30:21.531Z,17.30
2022-08-22T03:32:54.351Z,17.30
2022-08-22T03:35:45.976Z,17.30
2022-08-22T03:38:37.885Z,17.20
2022-08-22T03:41:25.581Z,17.20
2022-08-22T03:44:07.269Z,17.20
2022-08-22T03:46:52.878Z,17.10
2022-08-22T03:49:44.502Z,17.10
2022-08-22T03:53:01.867Z,17.10
2022-08-22T03:56:05.913Z,17.10
2022-08-22T03:58:57.459Z,17.00
2022-08-22T04:01:50.705Z,17.00
2022-08-22T04:04:32.490Z,17.00
2022-08-22T04:07:31.483Z,16.90
2022-08-22T04:10:20.903Z,16.90
2022-08-22T04:12:50.621Z,17.00
2022-08-22T04:15:41.221Z,17.00
2022-08-22T04:18:40.431Z,17.00
2022-08-22T04:21:28.918Z,17.10
2022-08-22T04:23:55.601Z,17.20
2022-08-22T04:26:33.389Z,17.30
2022-08-22T04:29:08.641Z,17.30
2022-08-22T04:31:46.242Z,17.40
2022-08-22T04:34:34.251Z,17.50
2022-08-22T04:37:18.191Z,17.50
2022-08-22T04:39:51.027Z,17.60
2022-08-22T04:42:33.702Z,17.50
2022-08-22T04:45:17.751Z,17.70
2022-08-22T04:48:14.024Z,17.70
2022-08-22T04:51:17.791Z,17.80
2022-08-22T04:53:56.357Z,17.80
2022-08-22T04:56:33.594Z,17.80
2022-08-22T04:59:07.879Z,17.80
2022-08-22T05:01:42.563Z,17.90
2022-08-22T05:04:18.208Z,17.90
2022-08-22T05:06:50.607Z,18.00
2022-08-22T05:09:22.218Z,18.00
2022-08-22T05:11:53.692Z,18.10
2022-08-22T05:14:45.002Z,18.20
2022-08-22T05:17:17.081Z,18.20
2022-08-22T05:19:50.523Z,18.30
2022-08-22T05:22:24.468Z,18.30
2022-08-22T05:24:56.951Z,18.40
2022-08-22T05:27:29.283Z,18.50
2022-08-22T05:30:05.073Z,18.60
2022-08-22T05:32:52.201Z,18.60
2022-08-22T05:35:23.106Z,18.70
2022-08-22T05:37:54.950Z,18.70
2022-08-22T05:40:26.120Z,18.80
2022-08-22T05:42:54.811Z,18.80
2022-08-22T05:45:22.821Z,18.90
2022-08-22T05:48:21.076Z,18.90
2022-08-22T05:50:57.432Z,19.00
2022-08-22T05:53:36.553Z,19.10
2022-08-22T05:56:10.552Z,19.10
2022-08-22T05:58:41.335Z,19.20
2022-08-22T06:01:17.144Z,19.30
2022-08-22T06:04:11.995Z,19.30
2022-08-22T06:06:56.194Z,19.40
2022-08-22T06:09:43.601Z,19.40
2022-08-22T06:12:22.110Z,19.60
2022-08-22T06:15:17.653Z,19.60
2022-08-22T06:17:51.725Z,19.80
2022-08-22T06:20:23.679Z,19.90
2022-08-22T06:22:58.261Z,20.00
2022-08-22T06:25:32.546Z,20.10
2022-08-22T06:28:06.047Z,20.30
2022-08-22T06:30:35.651Z,20.50
2022-08-22T06:33:12.859Z,20.70
2022-08-22T06:36:06.787Z,21.00
2022-08-22T06:39:10.494Z,21.20
2022-08-22T06:41:47.435Z,21.60
2022-08-22T06:44:18.253Z,22.30
2022-08-22T06:46:46.350Z,22.90
2022-08-22T06:49:13.952Z,23.90
2022-08-22T06:51:41.742Z,24.80
2022-08-22T06:54:19.751Z,25.70
2022-08-22T06:56:49.544Z,26.10
2022-08-22T06:59:22.448Z,26.10
2022-08-22T07:02:05.314Z,26.00
2022-08-22T07:04:32.256Z,25.90
2022-08-22T07:07:01.164Z,25.70
2022-08-22T07:09:37.141Z,25.60
2022-08-22T07:12:13.994Z,25.50
2022-08-22T07:14:46.896Z,25.60
2022-08-22T07:17:21.659Z,25.90
2022-08-22T07:20:23.630Z,26.30
2022-08-22T07:22:57.689Z,26.50
2022-08-22T07:25:25.263Z,26.90
2022-08-22T07:28:00.525Z,27.20
2022-08-22T07:31:08.986Z,27.60
2022-08-22T07:33:47.784Z,28.30
2022-08-22T07:36:22.981Z,29.00
2022-08-22T07:39:07.009Z,29.50
2022-08-22T07:42:11.346Z,29.90
2022-08-22T07:45:17.221Z,30.30
2022-08-22T07:48:00.359Z,30.30
2022-08-22T07:50:31.501Z,30.50
2022-08-22T07:53:19.602Z,30.70
2022-08-22T07:55:49.931Z,31.00
2022-08-22T07:58:18.108Z,31.20
2022-08-22T08:00:46.710Z,31.50
2022-08-22T08:03:13.722Z,31.60
2022-08-22T08:05:44.185Z,31.70
2022-08-22T08:08:41.821Z,31.80
2022-08-22T08:11:11.977Z,32.00
2022-08-22T08:13:43.612Z,32.00
2022-08-22T08:16:22.252Z,32.10
2022-08-22T08:18:52.649Z,32.20
2022-08-22T08:21:30.715Z,32.10
2022-08-22T08:24:00.195Z,32.10
2022-08-22T08:27:02.752Z,32.20
2022-08-22T08:29:31.355Z,32.20
2022-08-22T08:32:00.251Z,32.30
2022-08-22T08:34:32.355Z,32.30
2022-08-22T08:37:12.678Z,32.50
2022-08-22T08:39:48.422Z,32.40
2022-08-22T08:42:25.067Z,32.50
2022-08-22T08:45:19.518Z,32.60
2022-08-22T08:48:16.145Z,32.70
2022-08-22T08:51:09.693Z,32.30
2022-08-22T08:54:16.105Z,32.30
2022-08-22T08:56:54.428Z,32.40
2022-08-22T08:59:33.665Z,32.60
2022-08-22T09:02:40.521Z,32.40
2022-08-22T09:05:28.547Z,32.50
2022-08-22T09:08:19.278Z,32.80
2022-08-22T09:10:58.280Z,33.00
2022-08-22T09:14:12.361Z,33.20
2022-08-22T09:17:13.890Z,33.30
2022-08-22T09:20:18.099Z,33.50
2022-08-22T09:23:10.098Z,33.60
2022-08-22T09:25:48.748Z,33.80
2022-08-22T09:28:40.134Z,34.00
2022-08-22T09:31:44.814Z,34.10
2022-08-22T09:34:26.016Z,34.20
2022-08-22T09:37:20.074Z,34.40
2022-08-22T09:40:06.272Z,34.50
2022-08-22T09:43:21.209Z,34.60
2022-08-22T09:46:10.677Z,34.80
2022-08-22T09:48:48.622Z,35.00
2022-08-22T09:51:38.551Z,35.20
2022-08-22T09:54:18.765Z,35.30
2022-08-22T09:57:03.430Z,35.60
2022-08-22T09:59:48.711Z,35.70
2022-08-22T10:02:50.367Z,35.40
2022-08-22T10:05:35.149Z,34.80
2022-08-22T10:08:49.286Z,34.20
2022-08-22T10:11:59.960Z,34.50
2022-08-22T10:14:50.657Z,34.80
2022-08-22T10:17:30.536Z,35.20
2022-08-22T10:20:21.163Z,35.50
2022-08-22T10:23:12.658Z,36.10
2022-08-22T10:26:09.074Z,36.30
2022-08-22T10:29:02.258Z,36.20
2022-08-22T10:31:45.145Z,36.00
2022-08-22T10:34:35.750Z,35.90
2022-08-22T10:37:13.521Z,36.20
2022-08-22T10:39:53.214Z,36.90
2022-08-22T10:42:35.535Z,36.90
2022-08-22T10:45:36.428Z,37.40
2022-08-22T10:48:07.274Z,37.30
2022-08-22T10:50:43.701Z,36.60
2022-08-22T10:53:33.351Z,36.20
2022-08-22T10:56:11.071Z,35.60
2022-08-22T10:58:54.843Z,35.10
2022-08-22T11:01:37.679Z,34.60
2022-08-22T11:04:44.692Z,34.30
2022-08-22T11:07:35.977Z,33.90
2022-08-22T11:10:21.249Z,33.60
2022-08-22T11:13:11.442Z,33.50
2022-08-22T11:15:53.684Z,33.30
2022-08-22T11:18:30.537Z,33.50
2022-08-22T11:21:07.236Z,33.00
2022-08-22T11:24:01.037Z,32.70
2022-08-22T11:26:47.769Z,32.70
2022-08-22T11:29:45.494Z,32.50
2022-08-22T11:32:26.654Z,32.40
2022-08-22T11:35:00.533Z,32.40
2022-08-22T11:38:04.835Z,32.30
2022-08-22T11:40:42.566Z,32.20
2022-08-22T11:43:24.230Z,32.40
2022-08-22T11:45:53.535Z,32.90
2022-08-22T11:48:35.631Z,33.60
2022-08-22T11:51:49.560Z,34.70
2022-08-22T11:54:43.280Z,35.50
2022-08-22T11:57:19.190Z,36.20
2022-08-22T11:59:45.814Z,37.00
2022-08-22T12:02:21.895Z,37.60
2022-08-22T12:04:57.434Z,38.20
2022-08-22T12:07:32.225Z,38.50
2022-08-22T12:10:07.971Z,38.80
2022-08-22T12:13:05.691Z,38.80
2022-08-22T12:16:03.618Z,38.30
2022-08-22T12:18:52.923Z,38.30
2022-08-22T12:21:57.683Z,38.60
2022-08-22T12:24:31.252Z,38.80
2022-08-22T12:27:18.367Z,38.60
2022-08-22T12:30:14.027Z,37.90
2022-08-22T12:33:10.508Z,36.70
2022-08-22T12:35:57.740Z,36.00
2022-08-22T12:38:42.854Z,35.30
2022-08-22T12:41:34.575Z,34.70
2022-08-22T12:44:17.693Z,34.40
2022-08-22T12:47:03.035Z,34.80
2022-08-22T12:49:52.930Z,35.50
2022-08-22T12:52:31.745Z,36.20
2022-08-22T12:55:24.856Z,36.90
2022-08-22T12:58:02.151Z,37.30
2022-08-22T13:00:32.081Z,37.40
2022-08-22T13:03:04.729Z,36.80
2022-08-22T13:05:34.307Z,36.50
2022-08-22T13:08:20.255Z,36.10
2022-08-22T13:10:56.239Z,35.80
2022-08-22T13:13:56.054Z,35.70
2022-08-22T13:16:24.947Z,35.80
2022-08-22T13:19:00.866Z,35.70
2022-08-22T13:21:40.233Z,35.60
2022-08-22T13:24:12.757Z,35.70
2022-08-22T13:26:58.529Z,35.60
2022-08-22T13:29:39.075Z,35.40
2022-08-22T13:32:23.579Z,34.80
2022-08-22T13:34:56.506Z,34.50
2022-08-22T13:37:30.066Z,34.40
2022-08-22T13:40:02.581Z,34.10
2022-08-22T13:42:31.437Z,34.00
2022-08-22T13:45:05.088Z,34.10
2022-08-22T13:47:35.835Z,34.30
2022-08-22T13:50:14.558Z,34.50
2022-08-22T13:52:55.233Z,34.60
2022-08-22T13:55:49.016Z,34.30
2022-08-22T13:58:15.913Z,34.30
2022-08-22T14:01:21.305Z,34.40
2022-08-22T14:04:35.608Z,34.60
2022-08-22T14:07:03.710Z,34.90
2022-08-22T14:09:42.511Z,34.90
2022-08-22T14:12:11.958Z,34.90
2022-08-22T14:14:42.482Z,34.90
2022-08-22T14:17:24.406Z,34.70
2022-08-22T14:19:59.609Z,34.90
2022-08-22T14:22:35.053Z,35.00
2022-08-22T14:25:25.526Z,34.90
2022-08-22T14:28:01.289Z,34.70
2022-08-22T14:30:38.967Z,34.10
2022-08-22T14:33:46.897Z,33.80
2022-08-22T14:36:26.013Z,33.70
2022-08-22T14:39:02.555Z,33.50
2022-08-22T14:42:00.362Z,33.70
2022-08-22T14:44:40.396Z,34.00
2022-08-22T14:47:32.554Z,34.40
2022-08-22T14:50:09.434Z,34.30
2022-08-22T14:52:46.342Z,34.20
2022-08-22T14:55:15.857Z,34.20
2022-08-22T14:57:57.372Z,34.20
2022-08-22T15:00:32.040Z,34.20
2022-08-22T15:03:14.383Z,34.00
2022-08-22T15:05:52.446Z,34.00
2022-08-22T15:08:32.292Z,34.10
2022-08-22T15:11:22.181Z,34.10
2022-08-22T15:14:21.186Z,34.00
2022-08-22T15:17:05.595Z,33.90
2022-08-22T15:19:47.931Z,33.70
2022-08-22T15:22:27.942Z,33.80
2022-08-22T15:25:28.767Z,33.50
2022-08-22T15:28:05.337Z,33.10
2022-08-22T15:30:38.276Z,33.00
2022-08-22T15:33:14.274Z,33.10
2022-08-22T15:35:42.725Z,33.20
2022-08-22T15:38:32.898Z,33.10
2022-08-22T15:41:22.620Z,33.00
2022-08-22T15:44:00.869Z,33.10
2022-08-22T15:46:56.775Z,33.20
2022-08-22T15:49:32.127Z,33.20
2022-08-22T15:52:01.780Z,33.10
2022-08-22T15:54:54.681Z,33.10
2022-08-22T15:57:29.951Z,33.10
2022-08-22T15:59:59.910Z,33.00
2022-08-22T16:02:41.706Z,32.70
2022-08-22T16:05:11.447Z,32.50
2022-08-22T16:07:41.183Z,32.50
2022-08-22T16:10:13.177Z,32.40
2022-08-22T16:12:47.600Z,32.40
2022-08-22T16:15:52.849Z,32.50
2022-08-22T16:18:39.049Z,32.50
2022-08-22T16:21:23.761Z,32.60
2022-08-22T16:23:56.696Z,32.60
2022-08-22T16:26:24.566Z,32.50
2022-08-22T16:29:26.219Z,32.40
2022-08-22T16:31:54.585Z,32.40
2022-08-22T16:34:26.883Z,32.30
2022-08-22T16:37:08.617Z,32.30
2022-08-22T16:40:01.034Z,32.30
2022-08-22T16:42:39.310Z,32.20
2022-08-22T16:45:16.118Z,32.20
2022-08-22T16:47:58.054Z,32.00
2022-08-22T16:50:37.715Z,31.90
2022-08-22T16:53:30.385Z,31.80
2022-08-22T16:56:23.379Z,31.70
2022-08-22T16:59:19.740Z,31.60
2022-08-22T17:02:03.189Z,31.40
2022-08-22T17:04:40.357Z,31.30
2022-08-22T17:07:13.075Z,30.90
2022-08-22T17:10:03.446Z,30.70
2022-08-22T17:13:18.640Z,30.50
2022-08-22T17:15:56.849Z,30.30
2022-08-22T17:18:26.247Z,30.20
2022-08-22T17:21:11.470Z,30.00
2022-08-22T17:23:46.783Z,29.80
2022-08-22T17:26:46.817Z,29.60
2022-08-22T17:29:49.383Z,29.50
2022-08-22T17:32:24.977Z,29.30
2022-08-22T17:35:04.450Z,29.20
2022-08-22T17:38:11.215Z,29.00
2022-08-22T17:40:55.752Z,28.90
2022-08-22T17:43:22.349Z,28.80
2022-08-22T17:46:18.918Z,28.80
2022-08-22T17:49:08.151Z,28.70
2022-08-22T17:51:44.350Z,28.60
2022-08-22T17:54:20.610Z,28.50
2022-08-22T17:57:13.406Z,28.30
2022-08-22T17:59:52.230Z,28.10
2022-08-22T18:02:27.922Z,28.10
2022-08-22T18:05:07.979Z,27.90
2022-08-22T18:07:51.610Z,27.80
2022-08-22T18:10:19.471Z,27.50
2022-08-22T18:13:06.968Z,27.30
2022-08-22T18:15:58.680Z,27.20
2022-08-22T18:18:33.293Z,27.00
2022-08-22T18:21:08.509Z,26.90
2022-08-22T18:23:55.695Z,26.70
2022-08-22T18:26:50.135Z,26.50
2022-08-22T18:29:38.879Z,26.30
2022-08-22T18:32:33.293Z,26.10
2022-08-22T18:35:10.005Z,26.00
2022-08-22T18:37:37.297Z,25.90
2022-08-22T18:40:27.008Z,25.70
2022-08-22T18:43:23.850Z,25.70
2022-08-22T18:45:50.479Z,25.60
2022-08-22T18:48:26.347Z,25.30
2022-08-22T18:51:12.603Z,25.20
2022-08-22T18:53:46.703Z,25.20
2022-08-22T18:56:38.250Z,25.20
2022-08-22T18:59:40.122Z,25.20
2022-08-22T19:02:37.315Z,25.00
2022-08-22T19:05:22.623Z,24.80
2022-08-22T19:08:11.688Z,24.70
2022-08-22T19:11:02.989Z,24.60
2022-08-22T19:14:14.331Z,24.60
2022-08-22T19:17:16.212Z,24.50
2022-08-22T19:20:01.215Z,24.40
2022-08-22T19:22:36.523Z,24.30
2022-08-22T19:25:15.026Z,24.30
2022-08-22T19:28:02.192Z,24.20
2022-08-22T19:30:46.559Z,24.10
2022-08-22T19:33:34.598Z,24.10
2022-08-22T19:36:09.429Z,24.10
2022-08-22T19:38:56.368Z,24.00
2022-08-22T19:41:52.386Z,23.90
2022-08-22T19:44:18.999Z,23.90
2022-08-22T19:46:59.370Z,23.80
2022-08-22T19:49:32.005Z,23.80
2022-08-22T19:52:11.957Z,23.80
2022-08-22T19:55:12.601Z,23.80
2022-08-22T19:57:49.895Z,23.70
2022-08-22T20:00:24.825Z,23.70
2022-08-22T20:03:12.712Z,23.60
2022-08-22T20:05:56.637Z,23.50
2022-08-22T20:08:56.586Z,23.40
2022-08-22T20:11:43.491Z,23.40
2022-08-22T20:14:31.067Z,23.30
2022-08-22T20:17:16.564Z,23.20
2022-08-22T20:20:19.708Z,23.20
2022-08-22T20:23:02.829Z,23.10
2022-08-22T20:25:44.150Z,23.00
2022-08-22T20:28:35.037Z,22.90
2022-08-22T20:31:09.156Z,22.80
2022-08-22T20:33:40.802Z,22.80
2022-08-22T20:36:18.530Z,22.70
2022-08-22T20:39:10.837Z,22.70
2022-08-22T20:41:40.647Z,22.60
2022-08-22T20:44:28.466Z,22.50
2022-08-22T20:47:02.264Z,22.40
2022-08-22T20:49:52.322Z,22.40
2022-08-22T20:52:51.851Z,22.40
2022-08-22T20:55:27.287Z,22.30
2022-08-22T20:58:25.331Z,22.20
2022-08-22T21:00:56.919Z,22.20
2022-08-22T21:03:46.022Z,22.10
2022-08-22T21:06:31.566Z,22.10
2022-08-22T21:09:37.484Z,22.00
2022-08-22T21:12:09.121Z,21.90
2022-08-22T21:14:44.160Z,21.90
2022-08-22T21:17:34.511Z,21.80
2022-08-22T21:20:22.670Z,21.80
2022-08-22T21:22:50.423Z,21.80
2022-08-22T21:25:17.230Z,21.70
2022-08-22T21:27:48.096Z,21.70
2022-08-22T21:30:25.794Z,21.60
2022-08-22T21:32:56.249Z,21.50
2022-08-22T21:35:32.501Z,21.40
2022-08-22T21:38:00.917Z,21.40
2022-08-22T21:40:36.949Z,21.30
2022-08-22T21:43:12.468Z,21.30
2022-08-22T21:45:39.069Z,21.30
2022-08-22T21:48:33.715Z,21.20
2022-08-22T21:51:41.797Z,21.20
2022-08-22T21:54:29.398Z,21.10
2022-08-22T21:56:58.998Z,21.10
2022-08-22T21:59:51.669Z,21.00
2022-08-22T22:02:31.186Z,21.00
2022-08-22T22:04:59.007Z,21.00
2022-08-22T22:07:26.617Z,21.00
2022-08-22T22:09:54.840Z,21.00
2022-08-22T22:12:22.407Z,20.90
2022-08-22T22:14:49.601Z,20.80
2022-08-22T22:17:17.819Z,20.70
2022-08-22T22:19:44.873Z,20.50
2022-08-22T22:22:11.609Z,20.50
2022-08-22T22:24:38.555Z,20.50
2022-08-22T22:27:06.193Z,20.50
2022-08-22T22:29:34.107Z,20.50
2022-08-22T22:32:00.812Z,20.50
2022-08-22T22:34:27.576Z,20.50
2022-08-22T22:36:54.594Z,20.60
2022-08-22T22:39:21.368Z,20.60
2022-08-22T22:41:49.171Z,20.70
2022-08-22T22:44:16.014Z,20.70
2022-08-22T22:46:42.779Z,20.80
2022-08-22T22:49:09.459Z,20.80
2022-08-22T22:51:36.154Z,20.80
2022-08-22T22:54:03.228Z,20.80
2022-08-22T22:56:31.176Z,20.80
2022-08-22T22:59:01.182Z,20.80
2022-08-22T23:02:00.265Z,20.70
2022-08-22T23:04:27.319Z,20.70
2022-08-22T23:06:54.046Z,20.70
2022-08-22T23:09:20.722Z,20.60
2022-08-22T23:11:54.859Z,20.60
2022-08-22T23:14:21.611Z,20.60
2022-08-22T23:16:48.310Z,20.50
2022-08-22T23:19:17.211Z,20.50
2022-08-22T23:21:45.154Z,20.40
2022-08-22T23:24:13.524Z,20.40
2022-08-22T23:26:40.406Z,20.30
2022-08-22T23:29:07.116Z,20.30
2022-08-22T23:31:36.810Z,20.30
2022-08-22T23:34:10.521Z,20.20
2022-08-22T23:36:37.910Z,20.20
2022-08-22T23:39:06.485Z,20.10
2022-08-22T23:41:33.339Z,20.10
2022-08-22T23:44:00.160Z,20.10
2022-08-22T23:46:27.625Z,20.10
2022-08-22T23:48:57.796Z,20.00
2022-08-22T23:51:26.049Z,20.00
2022-08-22T23:53:54.830Z,19.90
2022-08-22T23:56:29.606Z,19.90
2022-08-22T23:58:56.888Z,19.90
